sensor_id;sensor_type;location;lat;lon;timestamp;P1;durP1;ratioP1;P2;durP2;ratioP2
20725;SDS011;10524;48.132;8.518;2023-05-29T00:00:15;11.43;;;7.43;;
20725;SDS011;10524;48.132;8.518;2023-05-29T00:02:44;12.88;;;7.43;;
20725;SDS011;10524;48.132;8.518;2023-05-29T00:05:10;13.00;;;7.53;;
20725;SDS011;10524;48.132;8.518;2023-05-29T00:07:37;12.80;;;7.38;;
20725;SDS011;10524;48.132;8.518;2023-05-29T00:10:04;13.38;;;7.50;;
20725;SDS011;10524;48.132;8.518;2023-05-29T00:12:30;10.07;;;7.53;;
20725;SDS011;10524;48.132;8.518;2023-05-29T00:14:56;11.10;;;7.25;;
20725;SDS011;10524;48.132;8.518;2023-05-29T00:17:22;13.52;;;7.57;;
20725;SDS011;10524;48.132;8.518;2023-05-29T00:19:48;11.95;;;7.32;;
20725;SDS011;10524;48.132;8.518;2023-05-29T00:22:14;12.65;;;7.45;;
20725;SDS011;10524;48.132;8.518;2023-05-29T00:24:40;10.82;;;6.38;;
20725;SDS011;10524;48.132;8.518;2023-05-29T00:27:05;11.30;;;7.60;;
20725;SDS011;10524;48.132;8.518;2023-05-29T00:29:31;14.95;;;7.40;;
20725;SDS011;10524;48.132;8.518;2023-05-29T00:31:57;12.93;;;7.57;;
20725;SDS011;10524;48.132;8.518;2023-05-29T00:34:23;11.98;;;7.45;;
20725;SDS011;10524;48.132;8.518;2023-05-29T00:36:49;12.55;;;6.82;;
20725;SDS011;10524;48.132;8.518;2023-05-29T00:39:14;14.45;;;7.80;;
20725;SDS011;10524;48.132;8.518;2023-05-29T00:41:40;12.15;;;7.78;;
20725;SDS011;10524;48.132;8.518;2023-05-29T00:44:06;13.35;;;7.68;;
20725;SDS011;10524;48.132;8.518;2023-05-29T00:46:32;11.82;;;8.02;;
20725;SDS011;10524;48.132;8.518;2023-05-29T00:48:58;12.05;;;7.25;;
20725;SDS011;10524;48.132;8.518;2023-05-29T00:51:25;13.00;;;7.88;;
20725;SDS011;10524;48.132;8.518;2023-05-29T00:53:54;13.63;;;7.40;;
20725;SDS011;10524;48.132;8.518;2023-05-29T00:56:20;15.13;;;7.60;;
20725;SDS011;10524;48.132;8.518;2023-05-29T00:58:48;10.68;;;7.25;;
20725;SDS011;10524;48.132;8.518;2023-05-29T01:01:15;11.52;;;7.47;;
20725;SDS011;10524;48.132;8.518;2023-05-29T01:03:46;10.90;;;7.07;;
20725;SDS011;10524;48.132;8.518;2023-05-29T01:06:13;13.15;;;6.80;;
20725;SDS011;10524;48.132;8.518;2023-05-29T01:08:40;10.80;;;7.13;;
20725;SDS011;10524;48.132;8.518;2023-05-29T01:13:57;13.38;;;7.38;;
20725;SDS011;10524;48.132;8.518;2023-05-29T01:16:30;11.73;;;7.68;;
20725;SDS011;10524;48.132;8.518;2023-05-29T01:28:15;13.27;;;7.10;;
20725;SDS011;10524;48.132;8.518;2023-05-29T01:30:44;11.13;;;7.00;;
20725;SDS011;10524;48.132;8.518;2023-05-29T01:33:10;12.00;;;7.40;;
20725;SDS011;10524;48.132;8.518;2023-05-29T01:35:36;13.45;;;7.70;;
20725;SDS011;10524;48.132;8.518;2023-05-29T01:38:02;11.95;;;7.53;;
20725;SDS011;10524;48.132;8.518;2023-05-29T01:40:27;12.82;;;7.20;;
20725;SDS011;10524;48.132;8.518;2023-05-29T01:42:53;11.40;;;7.30;;
20725;SDS011;10524;48.132;8.518;2023-05-29T01:45:19;13.98;;;8.48;;
20725;SDS011;10524;48.132;8.518;2023-05-29T01:47:45;15.48;;;7.70;;
20725;SDS011;10524;48.132;8.518;2023-05-29T01:50:12;14.20;;;8.27;;
20725;SDS011;10524;48.132;8.518;2023-05-29T01:52:40;14.30;;;7.93;;
20725;SDS011;10524;48.132;8.518;2023-05-29T01:55:06;13.55;;;8.25;;
20725;SDS011;10524;48.132;8.518;2023-05-29T01:57:33;15.13;;;8.20;;
20725;SDS011;10524;48.132;8.518;2023-05-29T02:00:00;16.45;;;8.23;;
20725;SDS011;10524;48.132;8.518;2023-05-29T02:02:29;14.80;;;8.52;;
20725;SDS011;10524;48.132;8.518;2023-05-29T02:04:55;12.98;;;8.20;;
20725;SDS011;10524;48.132;8.518;2023-05-29T02:07:21;13.45;;;8.57;;
20725;SDS011;10524;48.132;8.518;2023-05-29T02:09:46;13.75;;;7.88;;
20725;SDS011;10524;48.132;8.518;2023-05-29T02:12:12;12.10;;;7.65;;
20725;SDS011;10524;48.132;8.518;2023-05-29T02:14:38;11.63;;;6.90;;
20725;SDS011;10524;48.132;8.518;2023-05-29T02:17:05;12.43;;;7.32;;
20725;SDS011;10524;48.132;8.518;2023-05-29T02:19:30;12.50;;;7.50;;
20725;SDS011;10524;48.132;8.518;2023-05-29T02:21:56;11.63;;;7.47;;
20725;SDS011;10524;48.132;8.518;2023-05-29T02:24:21;15.18;;;8.00;;
20725;SDS011;10524;48.132;8.518;2023-05-29T02:26:48;13.88;;;8.05;;
20725;SDS011;10524;48.132;8.518;2023-05-29T02:29:15;12.48;;;7.72;;
20725;SDS011;10524;48.132;8.518;2023-05-29T02:31:41;16.83;;;7.63;;
20725;SDS011;10524;48.132;8.518;2023-05-29T02:34:06;13.90;;;7.55;;
20725;SDS011;10524;48.132;8.518;2023-05-29T02:36:32;17.58;;;7.80;;
20725;SDS011;10524;48.132;8.518;2023-05-29T02:38:57;13.57;;;7.78;;
20725;SDS011;10524;48.132;8.518;2023-05-29T02:41:23;12.65;;;7.72;;
20725;SDS011;10524;48.132;8.518;2023-05-29T02:43:48;14.80;;;8.07;;
20725;SDS011;10524;48.132;8.518;2023-05-29T02:46:14;13.80;;;7.95;;
20725;SDS011;10524;48.132;8.518;2023-05-29T02:48:40;16.13;;;8.43;;
20725;SDS011;10524;48.132;8.518;2023-05-29T02:51:05;12.02;;;7.93;;
20725;SDS011;10524;48.132;8.518;2023-05-29T02:53:31;13.35;;;7.88;;
20725;SDS011;10524;48.132;8.518;2023-05-29T02:55:57;13.15;;;8.15;;
20725;SDS011;10524;48.132;8.518;2023-05-29T02:58:22;14.10;;;8.73;;
20725;SDS011;10524;48.132;8.518;2023-05-29T03:00:48;14.75;;;8.63;;
20725;SDS011;10524;48.132;8.518;2023-05-29T03:03:15;13.13;;;8.00;;
20725;SDS011;10524;48.132;8.518;2023-05-29T03:05:40;15.20;;;7.97;;
20725;SDS011;10524;48.132;8.518;2023-05-29T03:08:06;12.60;;;7.63;;
20725;SDS011;10524;48.132;8.518;2023-05-29T03:10:32;11.55;;;8.18;;
20725;SDS011;10524;48.132;8.518;2023-05-29T03:12:57;14.10;;;8.13;;
20725;SDS011;10524;48.132;8.518;2023-05-29T03:15:23;11.90;;;7.60;;
20725;SDS011;10524;48.132;8.518;2023-05-29T03:17:48;12.95;;;7.53;;
20725;SDS011;10524;48.132;8.518;2023-05-29T03:20:14;12.40;;;7.80;;
20725;SDS011;10524;48.132;8.518;2023-05-29T03:22:40;14.02;;;7.50;;
20725;SDS011;10524;48.132;8.518;2023-05-29T03:25:06;13.50;;;7.60;;
20725;SDS011;10524;48.132;8.518;2023-05-29T03:27:32;14.55;;;8.00;;
20725;SDS011;10524;48.132;8.518;2023-05-29T03:29:58;15.77;;;8.20;;
20725;SDS011;10524;48.132;8.518;2023-05-29T03:32:24;14.52;;;7.97;;
20725;SDS011;10524;48.132;8.518;2023-05-29T03:34:50;11.82;;;7.13;;
20725;SDS011;10524;48.132;8.518;2023-05-29T03:37:16;15.73;;;8.52;;
20725;SDS011;10524;48.132;8.518;2023-05-29T03:39:41;13.27;;;7.55;;
20725;SDS011;10524;48.132;8.518;2023-05-29T03:42:07;14.40;;;7.63;;
20725;SDS011;10524;48.132;8.518;2023-05-29T03:44:33;11.38;;;7.57;;
20725;SDS011;10524;48.132;8.518;2023-05-29T03:46:58;14.02;;;8.20;;
20725;SDS011;10524;48.132;8.518;2023-05-29T03:49:24;15.32;;;8.65;;
20725;SDS011;10524;48.132;8.518;2023-05-29T03:51:50;14.23;;;8.40;;
20725;SDS011;10524;48.132;8.518;2023-05-29T03:54:16;14.02;;;7.97;;
20725;SDS011;10524;48.132;8.518;2023-05-29T03:56:42;13.75;;;8.38;;
20725;SDS011;10524;48.132;8.518;2023-05-29T03:59:07;18.63;;;8.90;;
20725;SDS011;10524;48.132;8.518;2023-05-29T04:01:33;13.05;;;8.38;;
20725;SDS011;10524;48.132;8.518;2023-05-29T04:03:59;13.77;;;8.00;;
20725;SDS011;10524;48.132;8.518;2023-05-29T04:06:25;14.40;;;8.15;;
20725;SDS011;10524;48.132;8.518;2023-05-29T04:08:51;14.93;;;7.68;;
20725;SDS011;10524;48.132;8.518;2023-05-29T04:11:17;11.38;;;7.47;;
20725;SDS011;10524;48.132;8.518;2023-05-29T04:13:45;10.77;;;7.45;;
20725;SDS011;10524;48.132;8.518;2023-05-29T04:16:12;9.43;;;6.90;;
20725;SDS011;10524;48.132;8.518;2023-05-29T04:18:38;10.75;;;7.20;;
20725;SDS011;10524;48.132;8.518;2023-05-29T04:21:04;10.23;;;6.47;;
20725;SDS011;10524;48.132;8.518;2023-05-29T04:23:30;11.43;;;6.28;;
20725;SDS011;10524;48.132;8.518;2023-05-29T04:25:55;10.27;;;6.63;;
20725;SDS011;10524;48.132;8.518;2023-05-29T04:28:22;9.95;;;6.50;;
20725;SDS011;10524;48.132;8.518;2023-05-29T04:30:48;9.90;;;6.30;;
20725;SDS011;10524;48.132;8.518;2023-05-29T04:33:14;9.57;;;6.10;;
20725;SDS011;10524;48.132;8.518;2023-05-29T04:35:40;9.45;;;5.88;;
20725;SDS011;10524;48.132;8.518;2023-05-29T04:38:08;8.30;;;5.90;;
20725;SDS011;10524;48.132;8.518;2023-05-29T04:40:34;7.97;;;5.82;;
20725;SDS011;10524;48.132;8.518;2023-05-29T04:43:01;7.63;;;5.55;;
20725;SDS011;10524;48.132;8.518;2023-05-29T04:45:27;6.80;;;5.32;;
20725;SDS011;10524;48.132;8.518;2023-05-29T04:47:53;8.65;;;5.45;;
20725;SDS011;10524;48.132;8.518;2023-05-29T04:50:22;8.77;;;5.45;;
20725;SDS011;10524;48.132;8.518;2023-05-29T04:52:51;6.65;;;4.93;;
20725;SDS011;10524;48.132;8.518;2023-05-29T04:55:16;7.00;;;5.25;;
20725;SDS011;10524;48.132;8.518;2023-05-29T04:57:42;8.73;;;5.30;;
20725;SDS011;10524;48.132;8.518;2023-05-29T05:00:08;8.18;;;5.35;;
20725;SDS011;10524;48.132;8.518;2023-05-29T05:02:38;6.13;;;5.00;;
20725;SDS011;10524;48.132;8.518;2023-05-29T05:05:06;6.40;;;4.78;;
20725;SDS011;10524;48.132;8.518;2023-05-29T05:07:32;6.57;;;5.45;;
20725;SDS011;10524;48.132;8.518;2023-05-29T05:09:57;7.20;;;5.40;;
20725;SDS011;10524;48.132;8.518;2023-05-29T05:12:23;8.38;;;5.05;;
20725;SDS011;10524;48.132;8.518;2023-05-29T05:14:48;7.15;;;5.10;;
20725;SDS011;10524;48.132;8.518;2023-05-29T05:17:14;8.45;;;4.93;;
20725;SDS011;10524;48.132;8.518;2023-05-29T05:19:40;5.55;;;4.72;;
20725;SDS011;10524;48.132;8.518;2023-05-29T05:22:06;6.07;;;4.47;;
20725;SDS011;10524;48.132;8.518;2023-05-29T05:24:32;6.80;;;4.90;;
20725;SDS011;10524;48.132;8.518;2023-05-29T05:26:57;6.47;;;4.88;;
20725;SDS011;10524;48.132;8.518;2023-05-29T05:29:23;6.38;;;4.80;;
20725;SDS011;10524;48.132;8.518;2023-05-29T05:31:49;8.57;;;5.07;;
20725;SDS011;10524;48.132;8.518;2023-05-29T05:34:14;8.55;;;5.43;;
20725;SDS011;10524;48.132;8.518;2023-05-29T05:36:40;7.38;;;5.05;;
20725;SDS011;10524;48.132;8.518;2023-05-29T05:39:06;6.47;;;5.05;;
20725;SDS011;10524;48.132;8.518;2023-05-29T05:41:31;6.60;;;5.43;;
20725;SDS011;10524;48.132;8.518;2023-05-29T05:43:57;7.57;;;4.88;;
20725;SDS011;10524;48.132;8.518;2023-05-29T05:46:23;9.13;;;5.20;;
20725;SDS011;10524;48.132;8.518;2023-05-29T05:48:48;7.93;;;5.88;;
20725;SDS011;10524;48.132;8.518;2023-05-29T05:51:14;5.75;;;4.57;;
20725;SDS011;10524;48.132;8.518;2023-05-29T05:53:40;5.75;;;4.25;;
20725;SDS011;10524;48.132;8.518;2023-05-29T05:56:06;6.82;;;4.72;;
20725;SDS011;10524;48.132;8.518;2023-05-29T05:58:31;10.35;;;5.20;;
20725;SDS011;10524;48.132;8.518;2023-05-29T06:00:57;6.80;;;4.95;;
20725;SDS011;10524;48.132;8.518;2023-05-29T06:03:23;7.45;;;5.13;;
20725;SDS011;10524;48.132;8.518;2023-05-29T06:05:49;7.95;;;5.40;;
20725;SDS011;10524;48.132;8.518;2023-05-29T06:08:17;8.13;;;5.15;;
20725;SDS011;10524;48.132;8.518;2023-05-29T06:10:42;6.85;;;4.70;;
20725;SDS011;10524;48.132;8.518;2023-05-29T06:13:08;6.50;;;5.00;;
20725;SDS011;10524;48.132;8.518;2023-05-29T06:15:34;4.97;;;4.43;;
20725;SDS011;10524;48.132;8.518;2023-05-29T06:18:00;5.43;;;4.47;;
20725;SDS011;10524;48.132;8.518;2023-05-29T06:20:26;5.30;;;4.30;;
20725;SDS011;10524;48.132;8.518;2023-05-29T06:22:52;6.25;;;4.60;;
20725;SDS011;10524;48.132;8.518;2023-05-29T06:25:18;8.82;;;4.57;;
20725;SDS011;10524;48.132;8.518;2023-05-29T06:27:44;9.18;;;4.78;;
20725;SDS011;10524;48.132;8.518;2023-05-29T06:30:10;7.95;;;4.43;;
20725;SDS011;10524;48.132;8.518;2023-05-29T06:32:37;6.25;;;4.10;;
20725;SDS011;10524;48.132;8.518;2023-05-29T06:35:03;8.02;;;4.90;;
20725;SDS011;10524;48.132;8.518;2023-05-29T06:37:31;6.93;;;4.57;;
20725;SDS011;10524;48.132;8.518;2023-05-29T06:39:56;5.85;;;4.47;;
20725;SDS011;10524;48.132;8.518;2023-05-29T06:42:22;9.02;;;4.57;;
20725;SDS011;10524;48.132;8.518;2023-05-29T06:44:48;7.45;;;4.95;;
20725;SDS011;10524;48.132;8.518;2023-05-29T06:47:13;6.80;;;4.57;;
20725;SDS011;10524;48.132;8.518;2023-05-29T06:49:39;8.52;;;4.80;;
20725;SDS011;10524;48.132;8.518;2023-05-29T06:52:04;7.00;;;4.18;;
20725;SDS011;10524;48.132;8.518;2023-05-29T06:54:30;6.00;;;4.10;;
20725;SDS011;10524;48.132;8.518;2023-05-29T06:56:56;5.82;;;4.20;;
20725;SDS011;10524;48.132;8.518;2023-05-29T06:59:21;5.18;;;4.30;;
20725;SDS011;10524;48.132;8.518;2023-05-29T07:01:47;7.03;;;4.85;;
20725;SDS011;10524;48.132;8.518;2023-05-29T07:04:13;7.05;;;4.80;;
20725;SDS011;10524;48.132;8.518;2023-05-29T07:06:38;5.97;;;4.28;;
20725;SDS011;10524;48.132;8.518;2023-05-29T07:09:04;6.47;;;4.18;;
20725;SDS011;10524;48.132;8.518;2023-05-29T07:11:30;6.82;;;4.50;;
20725;SDS011;10524;48.132;8.518;2023-05-29T07:13:55;9.38;;;5.18;;
20725;SDS011;10524;48.132;8.518;2023-05-29T07:16:21;7.28;;;4.55;;
20725;SDS011;10524;48.132;8.518;2023-05-29T07:18:47;6.97;;;4.70;;
20725;SDS011;10524;48.132;8.518;2023-05-29T07:21:12;5.72;;;4.28;;
20725;SDS011;10524;48.132;8.518;2023-05-29T07:23:39;6.82;;;4.13;;
20725;SDS011;10524;48.132;8.518;2023-05-29T07:26:05;6.50;;;4.20;;
20725;SDS011;10524;48.132;8.518;2023-05-29T07:28:30;6.20;;;4.50;;
20725;SDS011;10524;48.132;8.518;2023-05-29T07:30:56;6.22;;;4.10;;
20725;SDS011;10524;48.132;8.518;2023-05-29T07:33:22;6.00;;;4.13;;
20725;SDS011;10524;48.132;8.518;2023-05-29T07:35:48;5.22;;;3.58;;
20725;SDS011;10524;48.132;8.518;2023-05-29T07:38:13;7.50;;;4.22;;
20725;SDS011;10524;48.132;8.518;2023-05-29T07:40:39;5.32;;;3.95;;
20725;SDS011;10524;48.132;8.518;2023-05-29T07:43:05;8.20;;;3.90;;
20725;SDS011;10524;48.132;8.518;2023-05-29T07:45:30;5.20;;;3.80;;
20725;SDS011;10524;48.132;8.518;2023-05-29T07:47:56;5.88;;;4.50;;
20725;SDS011;10524;48.132;8.518;2023-05-29T07:50:21;7.07;;;3.95;;
20725;SDS011;10524;48.132;8.518;2023-05-29T07:52:47;6.90;;;4.00;;
20725;SDS011;10524;48.132;8.518;2023-05-29T07:55:13;5.25;;;3.95;;
20725;SDS011;10524;48.132;8.518;2023-05-29T07:57:39;6.55;;;4.50;;
20725;SDS011;10524;48.132;8.518;2023-05-29T08:00:05;6.07;;;4.30;;
20725;SDS011;10524;48.132;8.518;2023-05-29T08:02:32;6.15;;;3.53;;
20725;SDS011;10524;48.132;8.518;2023-05-29T08:04:58;6.10;;;3.75;;
20725;SDS011;10524;48.132;8.518;2023-05-29T08:07:24;5.57;;;4.15;;
20725;SDS011;10524;48.132;8.518;2023-05-29T08:09:51;5.07;;;3.85;;
20725;SDS011;10524;48.132;8.518;2023-05-29T08:12:17;6.13;;;3.88;;
20725;SDS011;10524;48.132;8.518;2023-05-29T08:14:43;5.20;;;3.58;;
20725;SDS011;10524;48.132;8.518;2023-05-29T08:17:09;4.72;;;3.83;;
20725;SDS011;10524;48.132;8.518;2023-05-29T08:19:35;6.72;;;4.20;;
20725;SDS011;10524;48.132;8.518;2023-05-29T08:22:00;8.38;;;4.10;;
20725;SDS011;10524;48.132;8.518;2023-05-29T08:24:26;6.95;;;4.03;;
20725;SDS011;10524;48.132;8.518;2023-05-29T08:26:53;8.77;;;3.90;;
20725;SDS011;10524;48.132;8.518;2023-05-29T08:29:18;5.63;;;4.20;;
20725;SDS011;10524;48.132;8.518;2023-05-29T08:31:44;6.07;;;4.18;;
20725;SDS011;10524;48.132;8.518;2023-05-29T08:34:10;5.30;;;4.00;;
20725;SDS011;10524;48.132;8.518;2023-05-29T08:36:36;5.72;;;4.20;;
20725;SDS011;10524;48.132;8.518;2023-05-29T08:39:02;5.55;;;4.15;;
20725;SDS011;10524;48.132;8.518;2023-05-29T08:44:08;5.95;;;4.00;;
20725;SDS011;10524;48.132;8.518;2023-05-29T08:46:38;6.47;;;4.25;;
20725;SDS011;10524;48.132;8.518;2023-05-29T08:49:05;8.00;;;4.05;;
20725;SDS011;10524;48.132;8.518;2023-05-29T08:51:34;7.40;;;4.57;;
20725;SDS011;10524;48.132;8.518;2023-05-29T08:54:03;7.38;;;4.40;;
20725;SDS011;10524;48.132;8.518;2023-05-29T08:56:29;7.90;;;4.45;;
20725;SDS011;10524;48.132;8.518;2023-05-29T08:58:55;9.25;;;4.25;;
20725;SDS011;10524;48.132;8.518;2023-05-29T09:01:22;5.68;;;4.13;;
20725;SDS011;10524;48.132;8.518;2023-05-29T09:03:50;6.28;;;4.13;;
20725;SDS011;10524;48.132;8.518;2023-05-29T09:06:16;7.05;;;4.28;;
20725;SDS011;10524;48.132;8.518;2023-05-29T09:08:43;5.80;;;4.35;;
20725;SDS011;10524;48.132;8.518;2023-05-29T09:11:09;7.20;;;4.50;;
20725;SDS011;10524;48.132;8.518;2023-05-29T09:13:35;7.25;;;4.40;;
20725;SDS011;10524;48.132;8.518;2023-05-29T09:16:00;7.10;;;4.50;;
20725;SDS011;10524;48.132;8.518;2023-05-29T09:18:30;6.00;;;4.22;;
20725;SDS011;10524;48.132;8.518;2023-05-29T09:20:56;7.45;;;4.22;;
20725;SDS011;10524;48.132;8.518;2023-05-29T09:23:23;8.93;;;4.30;;
20725;SDS011;10524;48.132;8.518;2023-05-29T09:25:53;5.88;;;4.43;;
20725;SDS011;10524;48.132;8.518;2023-05-29T09:28:20;5.88;;;4.10;;
20725;SDS011;10524;48.132;8.518;2023-05-29T09:30:48;6.32;;;4.40;;
20725;SDS011;10524;48.132;8.518;2023-05-29T09:33:15;5.90;;;4.05;;
20725;SDS011;10524;48.132;8.518;2023-05-29T09:35:45;6.00;;;3.90;;
20725;SDS011;10524;48.132;8.518;2023-05-29T09:38:15;7.18;;;4.40;;
20725;SDS011;10524;48.132;8.518;2023-05-29T09:40:42;5.82;;;4.43;;
20725;SDS011;10524;48.132;8.518;2023-05-29T09:43:14;5.85;;;4.40;;
20725;SDS011;10524;48.132;8.518;2023-05-29T09:45:51;8.02;;;4.93;;
20725;SDS011;10524;48.132;8.518;2023-05-29T09:48:17;5.78;;;4.10;;
20725;SDS011;10524;48.132;8.518;2023-05-29T09:50:47;6.18;;;4.30;;
20725;SDS011;10524;48.132;8.518;2023-05-29T09:55:43;6.82;;;4.45;;
20725;SDS011;10524;48.132;8.518;2023-05-29T09:58:08;6.82;;;4.22;;
20725;SDS011;10524;48.132;8.518;2023-05-29T10:00:37;6.43;;;4.43;;
20725;SDS011;10524;48.132;8.518;2023-05-29T10:03:04;6.65;;;4.25;;
20725;SDS011;10524;48.132;8.518;2023-05-29T10:05:29;7.80;;;4.60;;
20725;SDS011;10524;48.132;8.518;2023-05-29T10:07:56;6.30;;;4.93;;
20725;SDS011;10524;48.132;8.518;2023-05-29T10:10:24;7.72;;;5.10;;
20725;SDS011;10524;48.132;8.518;2023-05-29T10:12:51;7.20;;;4.57;;
20725;SDS011;10524;48.132;8.518;2023-05-29T10:15:19;6.75;;;4.30;;
20725;SDS011;10524;48.132;8.518;2023-05-29T10:17:51;6.63;;;4.93;;
20725;SDS011;10524;48.132;8.518;2023-05-29T10:20:22;5.68;;;4.43;;
20725;SDS011;10524;48.132;8.518;2023-05-29T10:22:50;6.22;;;4.30;;
20725;SDS011;10524;48.132;8.518;2023-05-29T10:25:19;5.30;;;4.28;;
20725;SDS011;10524;48.132;8.518;2023-05-29T10:27:46;7.55;;;4.53;;
20725;SDS011;10524;48.132;8.518;2023-05-29T10:32:56;7.43;;;4.60;;
20725;SDS011;10524;48.132;8.518;2023-05-29T10:36:30;6.78;;;4.63;;
20725;SDS011;10524;48.132;8.518;2023-05-29T10:38:35;7.60;;;4.97;;
20725;SDS011;10524;48.132;8.518;2023-05-29T10:46:28;8.88;;;4.35;;
20725;SDS011;10524;48.132;8.518;2023-05-29T10:49:17;5.50;;;4.53;;
20725;SDS011;10524;48.132;8.518;2023-05-29T10:51:43;6.50;;;4.47;;
20725;SDS011;10524;48.132;8.518;2023-05-29T10:54:10;6.50;;;4.05;;
20725;SDS011;10524;48.132;8.518;2023-05-29T10:56:36;6.82;;;4.60;;
20725;SDS011;10524;48.132;8.518;2023-05-29T10:59:02;6.55;;;4.45;;
20725;SDS011;10524;48.132;8.518;2023-05-29T11:01:31;6.85;;;5.00;;
20725;SDS011;10524;48.132;8.518;2023-05-29T11:06:40;5.57;;;4.47;;
20725;SDS011;10524;48.132;8.518;2023-05-29T11:09:25;6.47;;;4.35;;
20725;SDS011;10524;48.132;8.518;2023-05-29T11:14:46;7.43;;;4.55;;
20725;SDS011;10524;48.132;8.518;2023-05-29T11:20:06;6.43;;;4.55;;
20725;SDS011;10524;48.132;8.518;2023-05-29T11:25:08;7.50;;;4.35;;
20725;SDS011;10524;48.132;8.518;2023-05-29T11:27:34;6.75;;;4.30;;
20725;SDS011;10524;48.132;8.518;2023-05-29T11:30:00;5.68;;;4.10;;
20725;SDS011;10524;48.132;8.518;2023-05-29T11:32:26;6.28;;;4.30;;
20725;SDS011;10524;48.132;8.518;2023-05-29T11:34:54;4.97;;;4.10;;
20725;SDS011;10524;48.132;8.518;2023-05-29T11:37:24;6.93;;;3.88;;
20725;SDS011;10524;48.132;8.518;2023-05-29T11:39:50;6.10;;;4.00;;
20725;SDS011;10524;48.132;8.518;2023-05-29T11:42:16;6.38;;;3.58;;
20725;SDS011;10524;48.132;8.518;2023-05-29T11:44:42;6.60;;;3.88;;
20725;SDS011;10524;48.132;8.518;2023-05-29T11:47:07;7.07;;;4.00;;
20725;SDS011;10524;48.132;8.518;2023-05-29T11:49:34;5.53;;;4.13;;
20725;SDS011;10524;48.132;8.518;2023-05-29T11:52:08;5.78;;;3.90;;
20725;SDS011;10524;48.132;8.518;2023-05-29T11:54:34;8.38;;;3.78;;
20725;SDS011;10524;48.132;8.518;2023-05-29T11:57:00;5.22;;;3.90;;
20725;SDS011;10524;48.132;8.518;2023-05-29T11:59:30;5.32;;;3.85;;
20725;SDS011;10524;48.132;8.518;2023-05-29T12:01:56;7.47;;;4.10;;
20725;SDS011;10524;48.132;8.518;2023-05-29T12:04:22;8.20;;;3.85;;
20725;SDS011;10524;48.132;8.518;2023-05-29T12:06:47;5.68;;;3.50;;
20725;SDS011;10524;48.132;8.518;2023-05-29T12:09:23;5.55;;;3.80;;
20725;SDS011;10524;48.132;8.518;2023-05-29T12:11:50;7.25;;;3.90;;
20725;SDS011;10524;48.132;8.518;2023-05-29T12:14:16;6.78;;;4.07;;
20725;SDS011;10524;48.132;8.518;2023-05-29T12:16:41;7.07;;;4.07;;
20725;SDS011;10524;48.132;8.518;2023-05-29T12:19:07;4.90;;;3.90;;
20725;SDS011;10524;48.132;8.518;2023-05-29T12:21:33;7.15;;;3.97;;
20725;SDS011;10524;48.132;8.518;2023-05-29T12:23:59;5.45;;;4.18;;
20725;SDS011;10524;48.132;8.518;2023-05-29T12:26:25;5.95;;;4.00;;
20725;SDS011;10524;48.132;8.518;2023-05-29T12:28:51;4.57;;;4.07;;
20725;SDS011;10524;48.132;8.518;2023-05-29T12:31:27;5.63;;;3.97;;
20725;SDS011;10524;48.132;8.518;2023-05-29T12:33:54;5.68;;;3.75;;
20725;SDS011;10524;48.132;8.518;2023-05-29T12:36:25;7.60;;;4.10;;
20725;SDS011;10524;48.132;8.518;2023-05-29T12:38:51;5.80;;;3.90;;
20725;SDS011;10524;48.132;8.518;2023-05-29T12:41:24;4.90;;;3.75;;
20725;SDS011;10524;48.132;8.518;2023-05-29T12:43:52;7.60;;;3.72;;
20725;SDS011;10524;48.132;8.518;2023-05-29T12:46:20;8.40;;;4.13;;
20725;SDS011;10524;48.132;8.518;2023-05-29T12:48:46;6.97;;;3.78;;
20725;SDS011;10524;48.132;8.518;2023-05-29T12:51:12;5.75;;;4.00;;
20725;SDS011;10524;48.132;8.518;2023-05-29T12:53:37;5.78;;;3.85;;
20725;SDS011;10524;48.132;8.518;2023-05-29T12:56:03;5.45;;;3.42;;
20725;SDS011;10524;48.132;8.518;2023-05-29T12:58:28;6.90;;;3.67;;
20725;SDS011;10524;48.132;8.518;2023-05-29T13:00:54;5.18;;;3.85;;
20725;SDS011;10524;48.132;8.518;2023-05-29T13:03:21;4.57;;;3.65;;
20725;SDS011;10524;48.132;8.518;2023-05-29T13:05:48;5.45;;;3.80;;
20725;SDS011;10524;48.132;8.518;2023-05-29T13:08:15;5.78;;;4.07;;
20725;SDS011;10524;48.132;8.518;2023-05-29T13:10:41;6.60;;;4.20;;
20725;SDS011;10524;48.132;8.518;2023-05-29T13:13:06;5.72;;;3.80;;
20725;SDS011;10524;48.132;8.518;2023-05-29T13:15:32;5.28;;;3.90;;
20725;SDS011;10524;48.132;8.518;2023-05-29T13:17:58;5.22;;;3.70;;
20725;SDS011;10524;48.132;8.518;2023-05-29T13:20:24;7.18;;;3.92;;
20725;SDS011;10524;48.132;8.518;2023-05-29T13:22:50;6.35;;;4.28;;
20725;SDS011;10524;48.132;8.518;2023-05-29T13:25:16;5.70;;;4.10;;
20725;SDS011;10524;48.132;8.518;2023-05-29T13:27:43;7.50;;;4.30;;
20725;SDS011;10524;48.132;8.518;2023-05-29T13:30:10;7.43;;;3.95;;
20725;SDS011;10524;48.132;8.518;2023-05-29T13:32:37;6.25;;;4.00;;
20725;SDS011;10524;48.132;8.518;2023-05-29T13:35:03;4.85;;;3.80;;
20725;SDS011;10524;48.132;8.518;2023-05-29T13:37:29;7.30;;;3.90;;
20725;SDS011;10524;48.132;8.518;2023-05-29T13:39:55;5.13;;;3.90;;
20725;SDS011;10524;48.132;8.518;2023-05-29T13:42:20;7.82;;;3.50;;
20725;SDS011;10524;48.132;8.518;2023-05-29T13:44:47;7.60;;;4.47;;
20725;SDS011;10524;48.132;8.518;2023-05-29T13:47:13;6.47;;;3.85;;
20725;SDS011;10524;48.132;8.518;2023-05-29T13:49:39;5.85;;;3.83;;
20725;SDS011;10524;48.132;8.518;2023-05-29T13:52:05;5.28;;;3.60;;
20725;SDS011;10524;48.132;8.518;2023-05-29T13:54:31;6.15;;;4.22;;
20725;SDS011;10524;48.132;8.518;2023-05-29T13:57:03;7.60;;;3.78;;
20725;SDS011;10524;48.132;8.518;2023-05-29T13:59:32;7.30;;;3.53;;
20725;SDS011;10524;48.132;8.518;2023-05-29T14:01:59;6.45;;;3.60;;
20725;SDS011;10524;48.132;8.518;2023-05-29T14:04:25;4.90;;;3.47;;
20725;SDS011;10524;48.132;8.518;2023-05-29T14:06:51;6.70;;;3.60;;
20725;SDS011;10524;48.132;8.518;2023-05-29T14:09:17;5.97;;;3.55;;
20725;SDS011;10524;48.132;8.518;2023-05-29T14:11:47;3.90;;;3.30;;
20725;SDS011;10524;48.132;8.518;2023-05-29T14:14:13;9.57;;;3.85;;
20725;SDS011;10524;48.132;8.518;2023-05-29T14:16:40;7.18;;;3.67;;
20725;SDS011;10524;48.132;8.518;2023-05-29T14:19:06;7.63;;;3.53;;
20725;SDS011;10524;48.132;8.518;2023-05-29T14:21:32;6.05;;;3.55;;
20725;SDS011;10524;48.132;8.518;2023-05-29T14:23:57;5.65;;;3.90;;
20725;SDS011;10524;48.132;8.518;2023-05-29T14:26:23;6.80;;;3.80;;
20725;SDS011;10524;48.132;8.518;2023-05-29T14:28:48;7.93;;;3.80;;
20725;SDS011;10524;48.132;8.518;2023-05-29T14:31:14;7.50;;;3.70;;
20725;SDS011;10524;48.132;8.518;2023-05-29T14:33:40;5.32;;;3.65;;
20725;SDS011;10524;48.132;8.518;2023-05-29T14:36:06;5.35;;;3.38;;
20725;SDS011;10524;48.132;8.518;2023-05-29T14:38:32;5.53;;;3.50;;
20725;SDS011;10524;48.132;8.518;2023-05-29T14:40:57;5.45;;;3.33;;
20725;SDS011;10524;48.132;8.518;2023-05-29T14:43:23;5.68;;;3.50;;
20725;SDS011;10524;48.132;8.518;2023-05-29T14:45:49;5.70;;;3.55;;
20725;SDS011;10524;48.132;8.518;2023-05-29T14:48:14;6.75;;;4.10;;
20725;SDS011;10524;48.132;8.518;2023-05-29T14:50:41;6.63;;;3.88;;
20725;SDS011;10524;48.132;8.518;2023-05-29T14:53:07;4.90;;;3.70;;
20725;SDS011;10524;48.132;8.518;2023-05-29T14:55:32;8.23;;;3.50;;
20725;SDS011;10524;48.132;8.518;2023-05-29T14:58:02;6.82;;;4.25;;
20725;SDS011;10524;48.132;8.518;2023-05-29T15:00:31;6.30;;;3.67;;
20725;SDS011;10524;48.132;8.518;2023-05-29T15:02:57;5.20;;;3.28;;
20725;SDS011;10524;48.132;8.518;2023-05-29T15:05:27;7.20;;;3.70;;
20725;SDS011;10524;48.132;8.518;2023-05-29T15:07:53;5.82;;;3.90;;
20725;SDS011;10524;48.132;8.518;2023-05-29T15:10:21;10.07;;;3.67;;
20725;SDS011;10524;48.132;8.518;2023-05-29T15:12:51;4.20;;;3.38;;
20725;SDS011;10524;48.132;8.518;2023-05-29T15:15:25;4.45;;;3.60;;